sensor_id;sensor_type;location;lat;lon;timestamp;P1;durP1;ratioP1;P2;durP2;ratioP2
48993;SDS011;34804;49.214;12.276;2023-05-16T00:00:37;8.93;;;6.68;;
48993;SDS011;34804;49.214;12.276;2023-05-16T00:03:04;9.52;;;6.63;;
48993;SDS011;34804;49.214;12.276;2023-05-16T00:05:31;11.48;;;6.38;;
48993;SDS011;34804;49.214;12.276;2023-05-16T00:07:58;9.20;;;5.57;;
48993;SDS011;34804;49.214;12.276;2023-05-16T00:10:25;13.38;;;5.45;;
48993;SDS011;34804;49.214;12.276;2023-05-16T00:12:52;8.48;;;5.47;;
48993;SDS011;34804;49.214;12.276;2023-05-16T00:15:19;7.10;;;5.18;;
48993;SDS011;34804;49.214;12.276;2023-05-16T00:17:48;9.25;;;5.75;;
48993;SDS011;34804;49.214;12.276;2023-05-16T00:20:15;8.07;;;5.70;;
48993;SDS011;34804;49.214;12.276;2023-05-16T00:22:48;9.82;;;5.82;;
48993;SDS011;34804;49.214;12.276;2023-05-16T00:25:15;7.80;;;4.95;;
48993;SDS011;34804;49.214;12.276;2023-05-16T00:27:42;10.80;;;6.78;;
48993;SDS011;34804;49.214;12.276;2023-05-16T00:30:08;10.05;;;6.10;;
48993;SDS011;34804;49.214;12.276;2023-05-16T00:32:36;11.05;;;6.47;;
48993;SDS011;34804;49.214;12.276;2023-05-16T00:35:03;10.57;;;5.70;;
48993;SDS011;34804;49.214;12.276;2023-05-16T00:37:30;13.52;;;6.30;;
48993;SDS011;34804;49.214;12.276;2023-05-16T00:39:57;13.20;;;7.38;;
48993;SDS011;34804;49.214;12.276;2023-05-16T00:42:23;10.15;;;7.43;;
48993;SDS011;34804;49.214;12.276;2023-05-16T00:44:50;10.38;;;6.47;;
48993;SDS011;34804;49.214;12.276;2023-05-16T00:47:17;12.15;;;7.22;;
48993;SDS011;34804;49.214;12.276;2023-05-16T00:49:44;15.48;;;6.10;;
48993;SDS011;34804;49.214;12.276;2023-05-16T00:52:11;11.45;;;6.10;;
48993;SDS011;34804;49.214;12.276;2023-05-16T00:54:37;9.73;;;6.68;;
48993;SDS011;34804;49.214;12.276;2023-05-16T00:57:04;14.05;;;6.80;;
48993;SDS011;34804;49.214;12.276;2023-05-16T00:59:32;13.85;;;6.78;;
48993;SDS011;34804;49.214;12.276;2023-05-16T01:01:59;9.65;;;6.38;;
48993;SDS011;34804;49.214;12.276;2023-05-16T01:04:26;11.52;;;7.03;;
48993;SDS011;34804;49.214;12.276;2023-05-16T01:06:54;12.55;;;7.45;;
48993;SDS011;34804;49.214;12.276;2023-05-16T01:09:22;15.50;;;7.00;;
48993;SDS011;34804;49.214;12.276;2023-05-16T01:11:51;10.85;;;7.70;;
48993;SDS011;34804;49.214;12.276;2023-05-16T01:14:28;12.95;;;7.22;;
48993;SDS011;34804;49.214;12.276;2023-05-16T01:22:28;12.38;;;8.18;;
48993;SDS011;34804;49.214;12.276;2023-05-16T01:28:01;19.75;;;7.47;;
48993;SDS011;34804;49.214;12.276;2023-05-16T01:30:34;13.55;;;6.88;;
48993;SDS011;34804;49.214;12.276;2023-05-16T01:33:03;11.82;;;6.20;;
48993;SDS011;34804;49.214;12.276;2023-05-16T01:35:34;10.55;;;6.93;;
48993;SDS011;34804;49.214;12.276;2023-05-16T01:43:50;15.68;;;7.25;;
48993;SDS011;34804;49.214;12.276;2023-05-16T01:46:26;11.55;;;7.35;;
48993;SDS011;34804;49.214;12.276;2023-05-16T01:48:58;10.70;;;7.28;;
48993;SDS011;34804;49.214;12.276;2023-05-16T01:51:48;11.30;;;6.68;;
48993;SDS011;34804;49.214;12.276;2023-05-16T01:54:17;11.50;;;6.68;;
48993;SDS011;34804;49.214;12.276;2023-05-16T01:56:52;11.95;;;7.70;;
48993;SDS011;34804;49.214;12.276;2023-05-16T01:59:20;10.05;;;6.97;;
48993;SDS011;34804;49.214;12.276;2023-05-16T02:01:52;10.38;;;6.78;;
48993;SDS011;34804;49.214;12.276;2023-05-16T02:04:20;12.95;;;6.88;;
48993;SDS011;34804;49.214;12.276;2023-05-16T02:06:47;9.80;;;6.35;;
48993;SDS011;34804;49.214;12.276;2023-05-16T02:09:14;14.00;;;6.55;;
48993;SDS011;34804;49.214;12.276;2023-05-16T02:11:41;10.95;;;6.95;;
48993;SDS011;34804;49.214;12.276;2023-05-16T02:14:08;12.40;;;6.50;;
48993;SDS011;34804;49.214;12.276;2023-05-16T02:16:35;9.65;;;6.40;;
48993;SDS011;34804;49.214;12.276;2023-05-16T02:19:04;8.68;;;6.13;;
48993;SDS011;34804;49.214;12.276;2023-05-16T02:21:31;9.88;;;6.55;;
48993;SDS011;34804;49.214;12.276;2023-05-16T02:23:58;10.25;;;7.05;;
48993;SDS011;34804;49.214;12.276;2023-05-16T02:26:24;11.85;;;7.45;;
48993;SDS011;34804;49.214;12.276;2023-05-16T02:28:51;11.68;;;6.93;;
48993;SDS011;34804;49.214;12.276;2023-05-16T02:31:26;10.50;;;7.40;;
48993;SDS011;34804;49.214;12.276;2023-05-16T02:33:58;11.45;;;6.88;;
48993;SDS011;34804;49.214;12.276;2023-05-16T02:36:26;9.93;;;6.53;;
48993;SDS011;34804;49.214;12.276;2023-05-16T02:38:53;14.63;;;7.60;;
48993;SDS011;34804;49.214;12.276;2023-05-16T02:41:20;11.10;;;7.53;;
48993;SDS011;34804;49.214;12.276;2023-05-16T02:43:47;11.90;;;7.35;;
48993;SDS011;34804;49.214;12.276;2023-05-16T02:48:58;11.13;;;7.72;;
48993;SDS011;34804;49.214;12.276;2023-05-16T02:51:26;9.00;;;6.40;;
48993;SDS011;34804;49.214;12.276;2023-05-16T02:53:54;9.10;;;6.10;;
48993;SDS011;34804;49.214;12.276;2023-05-16T02:56:25;9.68;;;6.75;;
48993;SDS011;34804;49.214;12.276;2023-05-16T02:58:53;11.10;;;7.28;;
48993;SDS011;34804;49.214;12.276;2023-05-16T03:01:20;12.13;;;7.38;;
48993;SDS011;34804;49.214;12.276;2023-05-16T03:03:47;11.88;;;7.63;;
48993;SDS011;34804;49.214;12.276;2023-05-16T03:06:14;12.27;;;7.63;;
48993;SDS011;34804;49.214;12.276;2023-05-16T03:08:41;12.88;;;8.27;;
48993;SDS011;34804;49.214;12.276;2023-05-16T03:11:08;18.40;;;9.70;;
48993;SDS011;34804;49.214;12.276;2023-05-16T03:13:35;26.58;;;10.80;;
48993;SDS011;34804;49.214;12.276;2023-05-16T03:16:02;16.15;;;10.63;;
48993;SDS011;34804;49.214;12.276;2023-05-16T03:18:30;14.77;;;10.02;;
48993;SDS011;34804;49.214;12.276;2023-05-16T03:20:57;16.67;;;9.57;;
48993;SDS011;34804;49.214;12.276;2023-05-16T03:23:23;15.32;;;8.93;;
48993;SDS011;34804;49.214;12.276;2023-05-16T03:25:50;13.13;;;8.35;;
48993;SDS011;34804;49.214;12.276;2023-05-16T03:28:17;13.88;;;8.60;;
48993;SDS011;34804;49.214;12.276;2023-05-16T03:30:44;14.05;;;8.10;;
48993;SDS011;34804;49.214;12.276;2023-05-16T03:33:11;14.82;;;8.23;;
48993;SDS011;34804;49.214;12.276;2023-05-16T03:35:38;13.98;;;9.13;;
48993;SDS011;34804;49.214;12.276;2023-05-16T03:38:05;12.90;;;9.02;;
48993;SDS011;34804;49.214;12.276;2023-05-16T03:40:32;20.27;;;11.20;;
48993;SDS011;34804;49.214;12.276;2023-05-16T03:42:59;15.77;;;11.32;;
48993;SDS011;34804;49.214;12.276;2023-05-16T03:45:26;21.77;;;12.50;;
48993;SDS011;34804;49.214;12.276;2023-05-16T03:47:53;17.92;;;13.25;;
48993;SDS011;34804;49.214;12.276;2023-05-16T03:50:20;18.17;;;12.90;;
48993;SDS011;34804;49.214;12.276;2023-05-16T03:52:47;21.05;;;13.63;;
48993;SDS011;34804;49.214;12.276;2023-05-16T03:55:14;20.60;;;12.48;;
48993;SDS011;34804;49.214;12.276;2023-05-16T03:57:41;16.63;;;10.40;;
48993;SDS011;34804;49.214;12.276;2023-05-16T04:00:09;17.02;;;10.52;;
48993;SDS011;34804;49.214;12.276;2023-05-16T04:02:38;14.70;;;9.38;;
48993;SDS011;34804;49.214;12.276;2023-05-16T04:05:09;16.33;;;9.38;;
48993;SDS011;34804;49.214;12.276;2023-05-16T04:07:37;17.38;;;8.98;;
48993;SDS011;34804;49.214;12.276;2023-05-16T04:10:04;15.93;;;9.85;;
48993;SDS011;34804;49.214;12.276;2023-05-16T04:12:31;13.40;;;9.38;;
48993;SDS011;34804;49.214;12.276;2023-05-16T04:14:58;14.48;;;9.75;;
48993;SDS011;34804;49.214;12.276;2023-05-16T04:17:25;13.38;;;10.15;;
48993;SDS011;34804;49.214;12.276;2023-05-16T04:19:52;15.75;;;9.65;;
48993;SDS011;34804;49.214;12.276;2023-05-16T04:22:22;15.70;;;9.88;;
48993;SDS011;34804;49.214;12.276;2023-05-16T04:24:49;14.13;;;9.50;;
48993;SDS011;34804;49.214;12.276;2023-05-16T04:27:16;13.68;;;10.00;;
48993;SDS011;34804;49.214;12.276;2023-05-16T04:29:43;20.70;;;9.48;;
48993;SDS011;34804;49.214;12.276;2023-05-16T04:32:10;15.25;;;9.35;;
48993;SDS011;34804;49.214;12.276;2023-05-16T04:34:37;13.90;;;9.48;;
48993;SDS011;34804;49.214;12.276;2023-05-16T04:37:06;14.93;;;9.55;;
48993;SDS011;34804;49.214;12.276;2023-05-16T04:39:34;17.52;;;10.50;;
48993;SDS011;34804;49.214;12.276;2023-05-16T04:42:02;15.38;;;9.20;;
48993;SDS011;34804;49.214;12.276;2023-05-16T04:44:29;13.70;;;8.93;;
48993;SDS011;34804;49.214;12.276;2023-05-16T04:46:56;12.30;;;8.20;;
48993;SDS011;34804;49.214;12.276;2023-05-16T04:49:23;15.35;;;9.45;;
48993;SDS011;34804;49.214;12.276;2023-05-16T04:51:50;20.33;;;9.77;;
48993;SDS011;34804;49.214;12.276;2023-05-16T04:54:17;18.42;;;10.75;;
48993;SDS011;34804;49.214;12.276;2023-05-16T04:56:44;15.90;;;10.23;;
48993;SDS011;34804;49.214;12.276;2023-05-16T04:59:11;16.35;;;11.23;;
48993;SDS011;34804;49.214;12.276;2023-05-16T05:01:38;15.50;;;9.80;;
48993;SDS011;34804;49.214;12.276;2023-05-16T05:04:05;18.70;;;10.40;;
48993;SDS011;34804;49.214;12.276;2023-05-16T05:06:32;17.48;;;10.40;;
48993;SDS011;34804;49.214;12.276;2023-05-16T05:08:59;14.75;;;10.50;;
48993;SDS011;34804;49.214;12.276;2023-05-16T05:11:26;18.58;;;10.32;;
48993;SDS011;34804;49.214;12.276;2023-05-16T05:13:52;14.98;;;10.23;;
48993;SDS011;34804;49.214;12.276;2023-05-16T05:16:19;18.73;;;10.85;;
48993;SDS011;34804;49.214;12.276;2023-05-16T05:18:46;15.80;;;10.95;;
48993;SDS011;34804;49.214;12.276;2023-05-16T05:21:13;16.38;;;11.38;;
48993;SDS011;34804;49.214;12.276;2023-05-16T05:23:40;17.75;;;12.35;;
48993;SDS011;34804;49.214;12.276;2023-05-16T05:26:07;22.33;;;12.85;;
48993;SDS011;34804;49.214;12.276;2023-05-16T05:28:34;28.58;;;18.48;;
48993;SDS011;34804;49.214;12.276;2023-05-16T05:31:03;32.40;;;18.10;;
48993;SDS011;34804;49.214;12.276;2023-05-16T05:33:30;18.52;;;13.30;;
48993;SDS011;34804;49.214;12.276;2023-05-16T05:35:57;16.33;;;11.70;;
48993;SDS011;34804;49.214;12.276;2023-05-16T05:38:24;15.13;;;10.93;;
48993;SDS011;34804;49.214;12.276;2023-05-16T05:40:51;15.10;;;9.23;;
48993;SDS011;34804;49.214;12.276;2023-05-16T05:43:18;13.07;;;9.68;;
48993;SDS011;34804;49.214;12.276;2023-05-16T05:45:45;13.57;;;9.40;;
48993;SDS011;34804;49.214;12.276;2023-05-16T05:48:12;14.25;;;10.00;;
48993;SDS011;34804;49.214;12.276;2023-05-16T05:50:39;13.43;;;10.23;;
48993;SDS011;34804;49.214;12.276;2023-05-16T05:53:06;13.70;;;10.43;;
48993;SDS011;34804;49.214;12.276;2023-05-16T05:55:33;13.73;;;10.27;;
48993;SDS011;34804;49.214;12.276;2023-05-16T05:58:00;15.15;;;10.43;;
48993;SDS011;34804;49.214;12.276;2023-05-16T06:00:27;13.00;;;9.52;;
48993;SDS011;34804;49.214;12.276;2023-05-16T06:02:54;11.25;;;9.43;;
48993;SDS011;34804;49.214;12.276;2023-05-16T06:05:22;14.13;;;9.98;;
48993;SDS011;34804;49.214;12.276;2023-05-16T06:07:49;14.00;;;10.50;;
48993;SDS011;34804;49.214;12.276;2023-05-16T06:10:16;14.38;;;10.15;;
48993;SDS011;34804;49.214;12.276;2023-05-16T06:12:42;13.15;;;9.52;;
48993;SDS011;34804;49.214;12.276;2023-05-16T06:15:09;13.93;;;10.13;;
48993;SDS011;34804;49.214;12.276;2023-05-16T06:17:37;12.80;;;10.43;;
48993;SDS011;34804;49.214;12.276;2023-05-16T06:20:04;14.25;;;10.40;;
48993;SDS011;34804;49.214;12.276;2023-05-16T06:22:31;14.15;;;9.32;;
48993;SDS011;34804;49.214;12.276;2023-05-16T06:24:58;13.68;;;9.68;;
48993;SDS011;34804;49.214;12.276;2023-05-16T06:27:25;15.40;;;9.98;;
48993;SDS011;34804;49.214;12.276;2023-05-16T06:29:52;12.50;;;9.98;;
48993;SDS011;34804;49.214;12.276;2023-05-16T06:32:19;13.07;;;9.18;;
48993;SDS011;34804;49.214;12.276;2023-05-16T06:34:47;12.13;;;9.07;;
48993;SDS011;34804;49.214;12.276;2023-05-16T06:37:14;12.25;;;10.65;;
48993;SDS011;34804;49.214;12.276;2023-05-16T06:39:41;12.57;;;10.13;;
48993;SDS011;34804;49.214;12.276;2023-05-16T06:42:07;11.77;;;8.75;;
48993;SDS011;34804;49.214;12.276;2023-05-16T06:44:34;11.30;;;9.05;;
48993;SDS011;34804;49.214;12.276;2023-05-16T06:47:01;11.70;;;9.40;;
48993;SDS011;34804;49.214;12.276;2023-05-16T06:49:28;11.52;;;9.15;;
48993;SDS011;34804;49.214;12.276;2023-05-16T06:51:55;13.10;;;8.80;;
48993;SDS011;34804;49.214;12.276;2023-05-16T06:54:22;10.65;;;8.75;;
48993;SDS011;34804;49.214;12.276;2023-05-16T06:56:49;13.50;;;8.95;;
48993;SDS011;34804;49.214;12.276;2023-05-16T06:59:16;12.00;;;8.90;;
48993;SDS011;34804;49.214;12.276;2023-05-16T07:01:43;12.02;;;8.10;;
48993;SDS011;34804;49.214;12.276;2023-05-16T07:04:10;10.60;;;8.65;;
48993;SDS011;34804;49.214;12.276;2023-05-16T07:06:37;11.23;;;8.07;;
48993;SDS011;34804;49.214;12.276;2023-05-16T07:09:04;11.55;;;7.53;;
48993;SDS011;34804;49.214;12.276;2023-05-16T07:11:31;10.10;;;8.25;;
48993;SDS011;34804;49.214;12.276;2023-05-16T07:13:58;11.02;;;8.48;;
48993;SDS011;34804;49.214;12.276;2023-05-16T07:16:25;11.20;;;7.72;;
48993;SDS011;34804;49.214;12.276;2023-05-16T07:18:54;10.20;;;7.93;;
48993;SDS011;34804;49.214;12.276;2023-05-16T07:21:21;8.88;;;7.25;;
48993;SDS011;34804;49.214;12.276;2023-05-16T07:23:48;9.45;;;6.85;;
48993;SDS011;34804;49.214;12.276;2023-05-16T07:26:15;11.13;;;7.30;;
48993;SDS011;34804;49.214;12.276;2023-05-16T07:28:42;10.10;;;7.35;;
48993;SDS011;34804;49.214;12.276;2023-05-16T07:31:08;10.98;;;7.05;;
48993;SDS011;34804;49.214;12.276;2023-05-16T07:33:36;11.13;;;7.20;;
48993;SDS011;34804;49.214;12.276;2023-05-16T07:36:03;10.77;;;7.43;;
48993;SDS011;34804;49.214;12.276;2023-05-16T07:38:43;9.63;;;6.88;;
48993;SDS011;34804;49.214;12.276;2023-05-16T07:41:10;11.05;;;7.18;;
48993;SDS011;34804;49.214;12.276;2023-05-16T07:43:37;9.52;;;7.13;;
48993;SDS011;34804;49.214;12.276;2023-05-16T07:46:04;10.27;;;6.90;;
48993;SDS011;34804;49.214;12.276;2023-05-16T07:48:31;12.00;;;6.80;;
48993;SDS011;34804;49.214;12.276;2023-05-16T07:50:58;10.73;;;6.80;;
48993;SDS011;34804;49.214;12.276;2023-05-16T07:53:25;10.43;;;6.93;;
48993;SDS011;34804;49.214;12.276;2023-05-16T07:55:52;11.23;;;6.45;;
48993;SDS011;34804;49.214;12.276;2023-05-16T07:58:19;10.27;;;6.47;;
48993;SDS011;34804;49.214;12.276;2023-05-16T08:00:46;9.50;;;6.22;;
48993;SDS011;34804;49.214;12.276;2023-05-16T08:03:13;11.48;;;7.28;;
48993;SDS011;34804;49.214;12.276;2023-05-16T08:05:41;8.57;;;6.22;;
48993;SDS011;34804;49.214;12.276;2023-05-16T08:08:08;8.65;;;6.13;;
48993;SDS011;34804;49.214;12.276;2023-05-16T08:10:35;11.07;;;6.70;;
48993;SDS011;34804;49.214;12.276;2023-05-16T08:13:02;10.20;;;6.53;;
48993;SDS011;34804;49.214;12.276;2023-05-16T08:15:29;10.55;;;6.57;;
48993;SDS011;34804;49.214;12.276;2023-05-16T08:17:56;7.88;;;5.90;;
48993;SDS011;34804;49.214;12.276;2023-05-16T08:20:24;10.05;;;6.22;;
48993;SDS011;34804;49.214;12.276;2023-05-16T08:22:53;9.52;;;6.53;;
48993;SDS011;34804;49.214;12.276;2023-05-16T08:25:20;11.77;;;5.97;;
48993;SDS011;34804;49.214;12.276;2023-05-16T08:27:47;10.35;;;6.07;;
48993;SDS011;34804;49.214;12.276;2023-05-16T08:30:15;8.02;;;5.75;;
48993;SDS011;34804;49.214;12.276;2023-05-16T08:32:42;10.10;;;5.93;;
48993;SDS011;34804;49.214;12.276;2023-05-16T08:35:10;8.02;;;5.95;;
48993;SDS011;34804;49.214;12.276;2023-05-16T08:37:38;8.27;;;5.75;;
48993;SDS011;34804;49.214;12.276;2023-05-16T08:40:06;8.73;;;5.82;;
48993;SDS011;34804;49.214;12.276;2023-05-16T08:42:36;8.40;;;5.85;;
48993;SDS011;34804;49.214;12.276;2023-05-16T08:45:03;8.43;;;6.05;;
48993;SDS011;34804;49.214;12.276;2023-05-16T08:47:32;10.40;;;5.72;;
48993;SDS011;34804;49.214;12.276;2023-05-16T08:50:02;8.20;;;5.82;;
48993;SDS011;34804;49.214;12.276;2023-05-16T08:52:30;8.35;;;5.78;;
48993;SDS011;34804;49.214;12.276;2023-05-16T08:55:02;10.07;;;5.88;;
48993;SDS011;34804;49.214;12.276;2023-05-16T08:57:37;9.27;;;5.93;;
48993;SDS011;34804;49.214;12.276;2023-05-16T09:00:07;11.90;;;5.93;;
48993;SDS011;34804;49.214;12.276;2023-05-16T09:02:42;8.55;;;5.40;;
48993;SDS011;34804;49.214;12.276;2023-05-16T09:07:43;10.43;;;5.22;;
48993;SDS011;34804;49.214;12.276;2023-05-16T09:10:11;9.18;;;5.53;;
48993;SDS011;34804;49.214;12.276;2023-05-16T09:12:38;10.63;;;6.07;;
48993;SDS011;34804;49.214;12.276;2023-05-16T09:15:07;7.05;;;4.78;;
48993;SDS011;34804;49.214;12.276;2023-05-16T09:17:36;10.18;;;5.90;;
48993;SDS011;34804;49.214;12.276;2023-05-16T09:20:07;10.63;;;6.68;;
48993;SDS011;34804;49.214;12.276;2023-05-16T09:22:35;9.45;;;6.95;;
48993;SDS011;34804;49.214;12.276;2023-05-16T09:25:02;12.57;;;7.38;;
48993;SDS011;34804;49.214;12.276;2023-05-16T09:27:45;9.38;;;6.95;;
48993;SDS011;34804;49.214;12.276;2023-05-16T09:30:22;8.90;;;7.13;;
48993;SDS011;34804;49.214;12.276;2023-05-16T09:32:53;11.98;;;7.57;;
48993;SDS011;34804;49.214;12.276;2023-05-16T09:35:20;11.27;;;7.82;;
48993;SDS011;34804;49.214;12.276;2023-05-16T09:38:15;12.73;;;8.25;;
48993;SDS011;34804;49.214;12.276;2023-05-16T09:40:43;11.70;;;8.73;;
48993;SDS011;34804;49.214;12.276;2023-05-16T09:43:11;13.48;;;9.32;;
48993;SDS011;34804;49.214;12.276;2023-05-16T09:45:44;11.48;;;8.90;;
48993;SDS011;34804;49.214;12.276;2023-05-16T09:48:13;14.00;;;10.05;;
48993;SDS011;34804;49.214;12.276;2023-05-16T09:50:45;16.63;;;10.95;;
48993;SDS011;34804;49.214;12.276;2023-05-16T09:55:42;14.98;;;9.27;;
48993;SDS011;34804;49.214;12.276;2023-05-16T09:58:09;11.98;;;10.05;;
48993;SDS011;34804;49.214;12.276;2023-05-16T10:00:36;22.52;;;10.75;;
48993;SDS011;34804;49.214;12.276;2023-05-16T10:03:03;13.13;;;10.38;;
48993;SDS011;34804;49.214;12.276;2023-05-16T10:05:32;15.98;;;11.32;;
48993;SDS011;34804;49.214;12.276;2023-05-16T10:08:01;17.98;;;12.60;;
48993;SDS011;34804;49.214;12.276;2023-05-16T10:10:29;21.58;;;14.38;;
48993;SDS011;34804;49.214;12.276;2023-05-16T10:13:00;23.27;;;17.58;;
48993;SDS011;34804;49.214;12.276;2023-05-16T10:15:29;20.60;;;16.42;;
48993;SDS011;34804;49.214;12.276;2023-05-16T10:17:57;21.80;;;15.45;;
48993;SDS011;34804;49.214;12.276;2023-05-16T10:20:26;17.02;;;13.07;;
48993;SDS011;34804;49.214;12.276;2023-05-16T10:22:54;19.45;;;13.93;;
48993;SDS011;34804;49.214;12.276;2023-05-16T10:25:28;19.60;;;14.05;;
48993;SDS011;34804;49.214;12.276;2023-05-16T10:28:01;17.13;;;13.20;;
48993;SDS011;34804;49.214;12.276;2023-05-16T10:30:30;17.13;;;12.90;;
48993;SDS011;34804;49.214;12.276;2023-05-16T10:33:00;19.95;;;11.75;;
48993;SDS011;34804;49.214;12.276;2023-05-16T10:35:29;13.70;;;11.38;;
48993;SDS011;34804;49.214;12.276;2023-05-16T10:37:58;13.48;;;9.85;;
48993;SDS011;34804;49.214;12.276;2023-05-16T10:40:26;13.55;;;10.02;;
48993;SDS011;34804;49.214;12.276;2023-05-16T10:42:58;14.77;;;10.35;;
48993;SDS011;34804;49.214;12.276;2023-05-16T10:45:26;12.93;;;9.73;;
48993;SDS011;34804;49.214;12.276;2023-05-16T10:47:55;12.55;;;9.82;;
48993;SDS011;34804;49.214;12.276;2023-05-16T10:50:37;15.60;;;10.55;;
48993;SDS011;34804;49.214;12.276;2023-05-16T10:55:50;13.60;;;10.50;;
48993;SDS011;34804;49.214;12.276;2023-05-16T11:01:14;14.82;;;11.90;;
48993;SDS011;34804;49.214;12.276;2023-05-16T11:11:44;16.42;;;11.93;;
48993;SDS011;34804;49.214;12.276;2023-05-16T11:19:38;23.58;;;17.50;;
48993;SDS011;34804;49.214;12.276;2023-05-16T11:22:12;23.80;;;16.00;;
48993;SDS011;34804;49.214;12.276;2023-05-16T11:24:53;18.80;;;13.70;;
48993;SDS011;34804;49.214;12.276;2023-05-16T11:27:34;17.45;;;13.85;;
48993;SDS011;34804;49.214;12.276;2023-05-16T11:32:36;17.75;;;12.50;;
48993;SDS011;34804;49.214;12.276;2023-05-16T11:35:06;15.98;;;12.88;;
48993;SDS011;34804;49.214;12.276;2023-05-16T11:37:37;16.23;;;11.77;;
48993;SDS011;34804;49.214;12.276;2023-05-16T11:40:08;17.17;;;12.32;;
48993;SDS011;34804;49.214;12.276;2023-05-16T11:42:40;14.97;;;11.97;;
48993;SDS011;34804;49.214;12.276;2023-05-16T11:45:20;13.43;;;10.07;;
48993;SDS011;34804;49.214;12.276;2023-05-16T11:47:49;14.60;;;9.93;;
48993;SDS011;34804;49.214;12.276;2023-05-16T11:50:18;13.07;;;10.13;;
48993;SDS011;34804;49.214;12.276;2023-05-16T11:52:47;11.57;;;8.80;;
48993;SDS011;34804;49.214;12.276;2023-05-16T11:55:20;12.80;;;8.68;;
48993;SDS011;34804;49.214;12.276;2023-05-16T11:58:06;14.15;;;9.82;;
48993;SDS011;34804;49.214;12.276;2023-05-16T12:00:33;14.23;;;9.60;;
48993;SDS011;34804;49.214;12.276;2023-05-16T12:03:01;15.18;;;10.13;;
48993;SDS011;34804;49.214;12.276;2023-05-16T12:05:31;11.93;;;9.75;;
48993;SDS011;34804;49.214;12.276;2023-05-16T12:08:00;13.57;;;10.23;;
48993;SDS011;34804;49.214;12.276;2023-05-16T12:10:30;12.60;;;10.45;;
48993;SDS011;34804;49.214;12.276;2023-05-16T12:12:58;13.18;;;9.73;;
48993;SDS011;34804;49.214;12.276;2023-05-16T12:15:25;12.52;;;10.48;;
48993;SDS011;34804;49.214;12.276;2023-05-16T12:17:53;16.25;;;10.23;;
48993;SDS011;34804;49.214;12.276;2023-05-16T12:20:22;13.40;;;9.52;;
48993;SDS011;34804;49.214;12.276;2023-05-16T12:22:51;13.27;;;9.70;;
48993;SDS011;34804;49.214;12.276;2023-05-16T12:27:49;16.70;;;11.73;;
48993;SDS011;34804;49.214;12.276;2023-05-16T12:30:17;14.18;;;10.57;;
48993;SDS011;34804;49.214;12.276;2023-05-16T12:32:51;14.70;;;11.05;;
48993;SDS011;34804;49.214;12.276;2023-05-16T12:35:36;13.55;;;11.00;;
48993;SDS011;34804;49.214;12.276;2023-05-16T12:38:09;15.23;;;12.68;;
48993;SDS011;34804;49.214;12.276;2023-05-16T12:40:39;15.27;;;11.70;;
48993;SDS011;34804;49.214;12.276;2023-05-16T12:48:12;20.73;;;13.63;;
48993;SDS011;34804;49.214;12.276;2023-05-16T12:50:42;21.35;;;14.45;;
48993;SDS011;34804;49.214;12.276;2023-05-16T12:53:11;15.32;;;12.18;;
48993;SDS011;34804;49.214;12.276;2023-05-16T12:55:39;16.50;;;11.63;;
48993;SDS011;34804;49.214;12.276;2023-05-16T12:58:07;15.30;;;10.50;;
48993;SDS011;34804;49.214;12.276;2023-05-16T13:00:35;13.40;;;9.95;;
48993;SDS011;34804;49.214;12.276;2023-05-16T13:03:03;10.05;;;8.00;;
48993;SDS011;34804;49.214;12.276;2023-05-16T13:05:31;11.30;;;8.25;;
48993;SDS011;34804;49.214;12.276;2023-05-16T13:07:58;12.52;;;7.88;;
48993;SDS011;34804;49.214;12.276;2023-05-16T13:10:24;8.82;;;7.05;;
48993;SDS011;34804;49.214;12.276;2023-05-16T13:12:52;10.60;;;6.80;;
48993;SDS011;34804;49.214;12.276;2023-05-16T13:15:19;10.48;;;7.05;;
48993;SDS011;34804;49.214;12.276;2023-05-16T13:17:46;12.20;;;7.05;;
48993;SDS011;34804;49.214;12.276;2023-05-16T13:20:13;9.50;;;6.30;;
48993;SDS011;34804;49.214;12.276;2023-05-16T13:22:41;8.43;;;6.55;;
48993;SDS011;34804;49.214;12.276;2023-05-16T13:25:10;12.68;;;7.53;;
48993;SDS011;34804;49.214;12.276;2023-05-16T13:27:37;10.73;;;8.45;;
48993;SDS011;34804;49.214;12.276;2023-05-16T13:30:04;12.15;;;8.85;;
48993;SDS011;34804;49.214;12.276;2023-05-16T13:32:32;16.25;;;10.00;;
48993;SDS011;34804;49.214;12.276;2023-05-16T13:34:59;16.15;;;9.82;;
48993;SDS011;34804;49.214;12.276;2023-05-16T13:37:28;11.43;;;9.02;;
48993;SDS011;34804;49.214;12.276;2023-05-16T13:39:55;15.50;;;10.43;;
48993;SDS011;34804;49.214;12.276;2023-05-16T13:42:22;12.45;;;10.57;;
48993;SDS011;34804;49.214;12.276;2023-05-16T13:44:49;17.45;;;13.48;;
48993;SDS011;34804;49.214;12.276;2023-05-16T13:47:17;17.83;;;12.93;;
48993;SDS011;34804;49.214;12.276;2023-05-16T13:49:43;17.40;;;14.05;;
48993;SDS011;34804;49.214;12.276;2023-05-16T13:52:11;16.73;;;13.45;;
48993;SDS011;34804;49.214;12.276;2023-05-16T13:54:38;15.77;;;13.05;;
48993;SDS011;34804;49.214;12.276;2023-05-16T13:57:06;17.02;;;12.20;;
48993;SDS011;34804;49.214;12.276;2023-05-16T13:59:33;13.88;;;10.50;;
48993;SDS011;34804;49.214;12.276;2023-05-16T14:02:21;12.93;;;9.80;;
48993;SDS011;34804;49.214;12.276;2023-05-16T14:04:47;13.45;;;9.45;;
48993;SDS011;34804;49.214;12.276;2023-05-16T14:07:15;11.77;;;9.50;;
48993;SDS011;34804;49.214;12.276;2023-05-16T14:09:42;11.40;;;9.45;;
48993;SDS011;34804;49.214;12.276;2023-05-16T14:12:10;11.73;;;8.88;;
48993;SDS011;34804;49.214;12.276;2023-05-16T14:14:37;11.15;;;8.32;;
48993;SDS011;34804;49.214;12.276;2023-05-16T14:17:04;10.32;;;8.77;;
48993;SDS011;34804;49.214;12.276;2023-05-16T14:19:32;11.30;;;8.50;;
48993;SDS011;34804;49.214;12.276;2023-05-16T14:21:59;12.23;;;9.00;;
48993;SDS011;34804;49.214;12.276;2023-05-16T14:24:26;14.10;;;8.38;;
48993;SDS011;34804;49.214;12.276;2023-05-16T14:26:53;11.88;;;9.02;;
48993;SDS011;34804;49.214;12.276;2023-05-16T14:29:20;10.95;;;9.27;;
48993;SDS011;34804;49.214;12.276;2023-05-16T14:31:47;10.80;;;9.07;;
48993;SDS011;34804;49.214;12.276;2023-05-16T14:34:15;12.35;;;9.48;;
48993;SDS011;34804;49.214;12.276;2023-05-16T14:36:42;12.77;;;9.50;;
48993;SDS011;34804;49.214;12.276;2023-05-16T14:39:09;10.73;;;9.02;;
48993;SDS011;34804;49.214;12.276;2023-05-16T14:41:36;14.60;;;9.93;;
48993;SDS011;34804;49.214;12.276;2023-05-16T14:44:02;11.48;;;9.05;;
48993;SDS011;34804;49.214;12.276;2023-05-16T14:46:30;13.00;;;8.80;;
48993;SDS011;34804;49.214;12.276;2023-05-16T14:48:56;9.48;;;7.03;;
48993;SDS011;34804;49.214;12.276;2023-05-16T14:51:24;9.43;;;7.40;;
48993;SDS011;34804;49.214;12.276;2023-05-16T14:53:51;10.02;;;8.10;;
48993;SDS011;34804;49.214;12.276;2023-05-16T14:56:18;10.55;;;7.80;;
48993;SDS011;34804;49.214;12.276;2023-05-16T14:58:45;12.05;;;7.97;;
48993;SDS011;34804;49.214;12.276;2023-05-16T15:01:12;12.82;;;8.70;;
48993;SDS011;34804;49.214;12.276;2023-05-16T15:03:40;15.93;;;11.40;;
48993;SDS011;34804;49.214;12.276;2023-05-16T15:06:10;13.18;;;10.73;;
48993;SDS011;34804;49.214;12.276;2023-05-16T15:08:37;17.48;;;12.13;;
48993;SDS011;34804;49.214;12.276;2023-05-16T15:11:04;16.17;;;12.25;;
48993;SDS011;34804;49.214;12.276;2023-05-16T15:13:31;14.85;;;12.30;;
48993;SDS011;34804;49.214;12.276;2023-05-16T15:15:57;16.45;;;13.45;;